createdAt,value
2023-03-11T00:00:23.519Z,3.66
2023-03-11T00:02:52.693Z,3.60
2023-03-11T00:05:23.559Z,3.58
2023-03-11T00:07:50.928Z,3.58
2023-03-11T00:10:21.113Z,3.56
2023-03-11T00:12:47.604Z,3.53
2023-03-11T00:15:14.406Z,3.47
2023-03-11T00:17:40.976Z,3.47
2023-03-11T00:20:14.654Z,3.42
2023-03-11T00:22:41.168Z,3.34
2023-03-11T00:25:07.994Z,3.31
2023-03-11T00:27:34.384Z,3.26
2023-03-11T00:30:00.737Z,3.21
2023-03-11T00:32:27.247Z,3.16
2023-03-11T00:34:53.712Z,3.17
2023-03-11T00:37:20.565Z,3.13
2023-03-11T00:39:47.090Z,3.10
2023-03-11T00:42:13.621Z,3.10
2023-03-11T00:44:40.124Z,3.08
2023-03-11T00:47:06.737Z,3.10
2023-03-11T00:49:33.435Z,3.08
2023-03-11T00:51:59.862Z,3.08
2023-03-11T00:54:26.285Z,3.09
2023-03-11T00:56:52.773Z,3.08
2023-03-11T00:59:19.218Z,3.07
2023-03-11T01:01:45.895Z,3.07
2023-03-11T01:04:12.286Z,3.06
2023-03-11T01:06:45.107Z,3.06
2023-03-11T01:09:12.283Z,3.04
2023-03-11T01:11:38.794Z,3.01
2023-03-11T01:14:05.358Z,2.94
2023-03-11T01:16:32.001Z,2.88
2023-03-11T01:18:58.473Z,2.87
2023-03-11T01:21:24.948Z,2.83
2023-03-11T01:23:51.470Z,2.80
2023-03-11T01:26:18.003Z,2.72
2023-03-11T01:28:44.487Z,2.71
2023-03-11T01:31:11.176Z,2.68
2023-03-11T01:33:37.648Z,2.63
2023-03-11T01:36:04.456Z,2.56
2023-03-11T01:38:30.944Z,2.53
2023-03-11T01:40:57.352Z,2.53
2023-03-11T01:43:45.860Z,2.46
2023-03-11T01:46:17.593Z,2.45
2023-03-11T01:48:58.883Z,2.44
2023-03-11T01:51:43.923Z,2.42
2023-03-11T01:54:14.878Z,2.43
2023-03-11T01:56:42.995Z,2.41
2023-03-11T01:59:13.551Z,2.39
2023-03-11T02:01:52.345Z,2.39
2023-03-11T02:04:20.050Z,2.39
2023-03-11T02:06:46.659Z,2.34
2023-03-11T02:09:13.357Z,2.33
2023-03-11T02:11:39.782Z,2.30
2023-03-11T02:14:08.624Z,2.28
2023-03-11T02:16:35.408Z,2.26
2023-03-11T02:19:19.458Z,2.24
2023-03-11T02:21:46.667Z,2.18
2023-03-11T02:24:23.133Z,2.15
2023-03-11T02:26:56.442Z,2.09
2023-03-11T02:29:24.261Z,2.10
2023-03-11T02:31:51.219Z,2.04
2023-03-11T02:34:27.096Z,2.01
2023-03-11T02:36:53.944Z,2.01
2023-03-11T02:39:34.749Z,1.99
2023-03-11T02:42:08.622Z,1.97
2023-03-11T02:44:35.344Z,1.93
2023-03-11T02:47:02.226Z,1.88
2023-03-11T02:49:29.966Z,1.85
2023-03-11T02:51:56.394Z,1.83
2023-03-11T02:54:22.836Z,1.79
2023-03-11T02:56:49.220Z,1.75
2023-03-11T02:59:15.662Z,1.72
2023-03-11T03:01:42.108Z,1.68
2023-03-11T03:04:09.425Z,1.66
2023-03-11T03:06:36.069Z,1.64
2023-03-11T03:09:02.846Z,1.62
2023-03-11T03:11:29.272Z,1.57
2023-03-11T03:13:55.748Z,1.52
2023-03-11T03:16:22.183Z,1.48
2023-03-11T03:18:48.933Z,1.45
2023-03-11T03:21:15.405Z,1.43
2023-03-11T03:23:41.834Z,1.41
2023-03-11T03:26:08.296Z,1.40
2023-03-11T03:28:34.742Z,1.36
2023-03-11T03:31:09.523Z,1.33
2023-03-11T03:33:36.244Z,1.29
2023-03-11T03:36:07.396Z,1.28
2023-03-11T03:38:33.923Z,1.25
2023-03-11T03:41:00.368Z,1.23
2023-03-11T03:43:26.798Z,1.22
2023-03-11T03:46:05.337Z,1.18
2023-03-11T03:48:31.876Z,1.17
2023-03-11T03:51:06.476Z,1.14
2023-03-11T03:53:37.201Z,1.14
2023-03-11T03:56:08.730Z,1.12
2023-03-11T03:58:35.652Z,1.12
2023-03-11T04:01:04.013Z,1.15
2023-03-11T04:03:31.263Z,1.17
2023-03-11T04:06:16.911Z,1.17
2023-03-11T04:08:43.477Z,1.15
2023-03-11T04:11:09.969Z,1.14
2023-03-11T04:13:36.695Z,1.15
2023-03-11T04:16:04.106Z,1.17
2023-03-11T04:18:30.826Z,1.18
2023-03-11T04:20:57.343Z,1.15
2023-03-11T04:23:24.222Z,1.15
2023-03-11T04:25:50.744Z,1.12
2023-03-11T04:28:17.358Z,1.10
2023-03-11T04:30:44.348Z,1.09
2023-03-11T04:33:11.110Z,1.05
2023-03-11T04:35:40.794Z,1.02
2023-03-11T04:38:07.314Z,1.01
2023-03-11T04:40:33.841Z,0.98
2023-03-11T04:43:00.369Z,0.96
2023-03-11T04:45:26.792Z,0.92
2023-03-11T04:47:53.188Z,0.87
2023-03-11T04:50:19.717Z,0.86
2023-03-11T04:52:46.673Z,0.85
2023-03-11T04:55:13.896Z,0.80
2023-03-11T04:57:41.561Z,0.82
2023-03-11T05:00:11.467Z,0.79
2023-03-11T05:02:39.467Z,0.81
2023-03-11T05:05:07.327Z,0.81
2023-03-11T05:07:33.866Z,0.81
2023-03-11T05:10:00.402Z,0.82
2023-03-11T05:12:27.208Z,0.84
2023-03-11T05:14:53.572Z,0.83
2023-03-11T05:17:20.156Z,0.77
2023-03-11T05:19:46.544Z,0.77
2023-03-11T05:22:12.992Z,0.74
2023-03-11T05:24:39.437Z,0.74
2023-03-11T05:27:06.163Z,0.73
2023-03-11T05:29:33.046Z,0.69
2023-03-11T05:31:59.417Z,0.68
2023-03-11T05:34:25.881Z,0.65
2023-03-11T05:36:52.348Z,0.64
2023-03-11T05:39:18.845Z,0.62
2023-03-11T05:41:45.262Z,0.66
2023-03-11T05:44:11.797Z,0.64
2023-03-11T05:46:38.323Z,0.61
2023-03-11T05:49:04.902Z,0.61
2023-03-11T05:51:31.454Z,0.57
2023-03-11T05:53:58.710Z,0.60
2023-03-11T05:56:25.114Z,0.59
2023-03-11T05:58:51.636Z,0.56
2023-03-11T06:01:19.423Z,0.56
2023-03-11T06:03:45.964Z,0.54
2023-03-11T06:06:13.842Z,0.55
2023-03-11T06:08:45.830Z,0.54
2023-03-11T06:11:13.628Z,0.56
2023-03-11T06:13:40.069Z,0.56
2023-03-11T06:16:07.262Z,0.57
2023-03-11T06:18:33.870Z,0.59
2023-03-11T06:21:01.457Z,0.60
2023-03-11T06:23:28.606Z,0.59
2023-03-11T06:25:59.475Z,0.59
2023-03-11T06:28:27.414Z,0.61
2023-03-11T06:30:56.646Z,0.66
2023-03-11T06:33:24.030Z,0.69
2023-03-11T06:35:58.117Z,0.77
2023-03-11T06:38:25.170Z,0.87
2023-03-11T06:40:52.010Z,0.92
2023-03-11T06:43:18.861Z,0.89
2023-03-11T06:45:46.102Z,0.85
2023-03-11T06:48:12.554Z,0.87
2023-03-11T06:50:39.067Z,0.93
2023-03-11T06:53:08.121Z,0.98
2023-03-11T06:55:35.566Z,1.01
2023-03-11T06:58:02.248Z,1.07
2023-03-11T07:00:30.267Z,1.16
2023-03-11T07:02:56.734Z,1.24
2023-03-11T07:05:23.118Z,1.31
2023-03-11T07:07:49.577Z,1.31
2023-03-11T07:10:16.730Z,1.29
2023-03-11T07:12:43.205Z,1.42
2023-03-11T07:15:10.431Z,1.54
2023-03-11T07:17:37.017Z,1.58
2023-03-11T07:20:03.944Z,1.67
2023-03-11T07:22:30.602Z,1.70
2023-03-11T07:24:57.020Z,1.71
2023-03-11T07:27:23.493Z,1.78
2023-03-11T07:29:49.939Z,1.80
2023-03-11T07:32:16.595Z,1.81
2023-03-11T07:34:43.252Z,1.82
2023-03-11T07:37:09.750Z,1.87
2023-03-11T07:39:36.418Z,1.89
2023-03-11T07:42:04.633Z,2.02
2023-03-11T07:44:31.340Z,2.07
2023-03-11T07:46:57.838Z,2.09
2023-03-11T07:49:24.339Z,2.16
2023-03-11T07:51:50.936Z,2.17
2023-03-11T07:54:17.370Z,2.21
2023-03-11T07:56:43.868Z,2.27
2023-03-11T07:59:10.358Z,2.31
2023-03-11T08:01:36.947Z,2.34
2023-03-11T08:04:06.032Z,2.39
2023-03-11T08:06:34.253Z,2.47
2023-03-11T08:09:03.306Z,2.53
2023-03-11T08:11:30.657Z,2.59
2023-03-11T08:13:57.974Z,2.62
2023-03-11T08:16:24.899Z,2.63
2023-03-11T08:18:52.536Z,2.54
2023-03-11T08:21:22.511Z,2.47
2023-03-11T08:23:49.761Z,2.49
2023-03-11T08:26:18.726Z,2.51
2023-03-11T08:28:46.107Z,2.58
2023-03-11T08:31:20.357Z,2.59
2023-03-11T08:33:52.381Z,2.59
2023-03-11T08:36:20.091Z,2.65
2023-03-11T08:38:46.704Z,2.66
2023-03-11T08:41:13.907Z,2.71
2023-03-11T08:43:40.506Z,2.82
2023-03-11T08:46:07.604Z,2.89
2023-03-11T08:48:36.191Z,3.03
2023-03-11T08:51:03.088Z,3.14
2023-03-11T08:53:29.545Z,3.17
2023-03-11T08:55:56.127Z,2.97
2023-03-11T08:58:22.490Z,3.00
2023-03-11T09:00:48.938Z,3.11
2023-03-11T09:03:15.399Z,3.34
2023-03-11T09:05:41.900Z,3.53
2023-03-11T09:08:08.573Z,3.61
2023-03-11T09:10:34.994Z,3.65
2023-03-11T09:13:01.373Z,3.79
2023-03-11T09:15:28.152Z,3.87
2023-03-11T09:17:54.865Z,3.60
2023-03-11T09:20:21.449Z,3.33
2023-03-11T09:22:48.289Z,3.18
2023-03-11T09:25:15.559Z,3.20
2023-03-11T09:27:42.038Z,3.32
2023-03-11T09:30:10.290Z,3.46
2023-03-11T09:32:37.143Z,3.36
2023-03-11T09:35:04.051Z,3.24
2023-03-11T09:37:32.026Z,3.22
2023-03-11T09:39:58.436Z,3.13
2023-03-11T09:42:41.023Z,3.05
2023-03-11T09:45:29.941Z,3.21
2023-03-11T09:48:35.893Z,3.61
2023-03-11T09:51:10.405Z,3.68
2023-03-11T09:53:41.971Z,4.08
2023-03-11T09:56:15.983Z,4.52
2023-03-11T09:58:52.983Z,4.97
2023-03-11T10:01:29.429Z,5.45
2023-03-11T10:04:01.606Z,5.52
2023-03-11T10:06:31.598Z,5.66
2023-03-11T10:09:21.334Z,5.49
2023-03-11T10:12:08.437Z,5.04
2023-03-11T10:15:10.422Z,4.65
2023-03-11T10:17:36.888Z,4.35
2023-03-11T10:20:22.473Z,4.15
2023-03-11T10:22:56.019Z,4.10
2023-03-11T10:25:33.970Z,4.02
2023-03-11T10:28:09.929Z,3.98
2023-03-11T10:30:57.704Z,4.02
2023-03-11T10:33:42.346Z,4.04
2023-03-11T10:36:17.377Z,4.17
2023-03-11T10:38:50.099Z,4.32
2023-03-11T10:41:26.075Z,4.22
2023-03-11T10:44:02.431Z,4.13
2023-03-11T10:46:29.085Z,4.01
2023-03-11T10:48:56.284Z,3.94
2023-03-11T10:53:54.354Z,3.86
2023-03-11T10:56:38.656Z,3.98
2023-03-11T10:59:27.366Z,4.06
2023-03-11T11:02:00.205Z,4.22
2023-03-11T11:04:36.265Z,4.63
2023-03-11T11:07:20.834Z,4.93
2023-03-11T11:09:47.740Z,5.03
2023-03-11T11:12:17.650Z,4.99
2023-03-11T11:14:52.517Z,5.10
2023-03-11T11:17:40.306Z,5.72
2023-03-11T11:20:17.925Z,6.23
2023-03-11T11:22:55.444Z,5.84
2023-03-11T11:25:33.007Z,5.73
2023-03-11T11:28:16.073Z,6.39
2023-03-11T11:30:55.797Z,6.97
2023-03-11T11:33:38.609Z,7.17
2023-03-11T11:36:11.113Z,7.32
2023-03-11T11:38:37.752Z,7.53
2023-03-11T11:41:05.432Z,7.13
2023-03-11T11:43:44.056Z,6.49
2023-03-11T11:46:20.248Z,6.72
2023-03-11T11:49:19.209Z,6.76
2023-03-11T11:51:48.580Z,6.19
2023-03-11T11:54:35.995Z,6.17
2023-03-11T11:57:11.643Z,5.95
2023-03-11T11:59:38.314Z,5.65
2023-03-11T12:02:42.694Z,5.91
2023-03-11T12:05:21.577Z,6.39
2023-03-11T12:08:06.627Z,6.64
2023-03-11T12:10:45.041Z,6.53
2023-03-11T12:13:45.401Z,6.40
2023-03-11T12:16:37.142Z,5.95
2023-03-11T12:19:07.532Z,6.02
2023-03-11T12:21:52.475Z,5.98
2023-03-11T12:24:37.183Z,5.71
2023-03-11T12:27:13.896Z,6.05
2023-03-11T12:29:46.140Z,6.76
2023-03-11T12:32:27.676Z,7.24
2023-03-11T12:34:54.232Z,7.49
2023-03-11T12:37:23.324Z,7.60
2023-03-11T12:39:49.732Z,7.79
2023-03-11T12:42:26.713Z,8.10
2023-03-11T12:44:53.877Z,8.08
2023-03-11T12:47:22.923Z,7.80
2023-03-11T12:49:49.507Z,7.77
2023-03-11T12:52:24.871Z,7.79
2023-03-11T12:55:01.047Z,8.02
2023-03-11T12:58:17.578Z,8.35
2023-03-11T13:01:06.540Z,8.67
2023-03-11T13:04:11.391Z,8.57
2023-03-11T13:06:47.549Z,8.74
2023-03-11T13:09:17.389Z,8.63
2023-03-11T13:11:47.142Z,8.14
2023-03-11T13:14:34.091Z,7.86
2023-03-11T13:17:24.651Z,8.04
2023-03-11T13:19:56.816Z,8.17
2023-03-11T13:22:52.459Z,8.49
2023-03-11T13:25:30.512Z,8.49
2023-03-11T13:28:21.305Z,8.04
2023-03-11T13:31:24.978Z,7.91
2023-03-11T13:33:54.676Z,7.86
2023-03-11T13:36:53.201Z,7.76
2023-03-11T13:39:37.694Z,7.49
2023-03-11T13:42:21.605Z,7.58
2023-03-11T13:44:49.211Z,7.92
2023-03-11T13:47:17.653Z,8.15
2023-03-11T13:49:52.855Z,8.01
2023-03-11T13:52:48.970Z,8.10
2023-03-11T13:55:22.269Z,8.24
2023-03-11T13:57:56.524Z,8.26
2023-03-11T14:00:27.926Z,8.36
2023-03-11T14:02:57.426Z,8.61
2023-03-11T14:05:46.480Z,8.86
2023-03-11T14:08:26.906Z,9.10
2023-03-11T14:10:55.625Z,8.96
2023-03-11T14:13:24.219Z,9.01
2023-03-11T14:15:57.511Z,8.91
2023-03-11T14:18:33.026Z,8.62
2023-03-11T14:21:00.231Z,8.48
2023-03-11T14:23:30.501Z,8.35
2023-03-11T14:26:02.762Z,8.45
2023-03-11T14:28:33.036Z,8.29
2023-03-11T14:31:01.835Z,8.24
2023-03-11T14:33:28.470Z,8.51
2023-03-11T14:36:01.539Z,8.54
2023-03-11T14:38:30.774Z,8.44
2023-03-11T14:41:00.460Z,8.24
2023-03-11T14:43:34.921Z,7.83
2023-03-11T14:46:03.446Z,7.67
2023-03-11T14:48:35.583Z,7.50
2023-03-11T14:51:04.332Z,7.49
2023-03-11T14:53:40.927Z,7.47
2023-03-11T14:56:17.628Z,7.23
2023-03-11T14:58:55.716Z,7.27
2023-03-11T15:01:30.507Z,7.13
2023-03-11T15:04:13.189Z,7.07
2023-03-11T15:06:43.597Z,7.06
2023-03-11T15:09:20.068Z,7.02
2023-03-11T15:11:52.890Z,6.97
2023-03-11T15:14:37.088Z,6.93
2023-03-11T15:17:11.744Z,6.74
2023-03-11T15:19:39.924Z,6.69
2023-03-11T15:22:26.297Z,6.76
2023-03-11T15:24:56.024Z,6.77
2023-03-11T15:27:31.445Z,6.82
2023-03-11T15:29:59.181Z,6.93
2023-03-11T15:32:30.166Z,6.93
2023-03-11T15:35:12.864Z,6.91
2023-03-11T15:37:41.499Z,6.79
2023-03-11T15:40:42.447Z,6.73
2023-03-11T15:43:23.817Z,6.44
2023-03-11T15:45:53.569Z,6.29
2023-03-11T15:48:21.301Z,6.32
2023-03-11T15:50:54.307Z,6.30
2023-03-11T15:53:22.400Z,6.21
2023-03-11T15:55:49.053Z,6.16
2023-03-11T15:58:17.455Z,6.03
2023-03-11T16:00:53.118Z,5.97
2023-03-11T16:03:20.337Z,5.87
2023-03-11T16:05:47.439Z,5.81
2023-03-11T16:08:14.194Z,5.73
2023-03-11T16:10:41.334Z,5.71
2023-03-11T16:13:12.243Z,5.65
2023-03-11T16:15:38.809Z,5.62
2023-03-11T16:18:07.572Z,5.65
2023-03-11T16:20:40.313Z,5.70
2023-03-11T16:23:11.173Z,5.71
2023-03-11T16:25:39.635Z,5.71
2023-03-11T16:28:06.963Z,5.64
2023-03-11T16:30:35.098Z,5.61
2023-03-11T16:33:04.536Z,5.53
2023-03-11T16:35:31.475Z,5.48
2023-03-11T16:37:58.091Z,5.48
2023-03-11T16:40:27.377Z,5.42
2023-03-11T16:43:02.527Z,5.38
2023-03-11T16:45:29.198Z,5.38
2023-03-11T16:47:55.541Z,5.37
2023-03-11T16:50:24.315Z,5.34
2023-03-11T16:52:51.737Z,5.27
2023-03-11T16:55:18.333Z,5.22
2023-03-11T16:57:45.071Z,5.27
2023-03-11T17:00:14.701Z,5.22
2023-03-11T17:02:41.513Z,5.16
2023-03-11T17:05:09.054Z,5.16
2023-03-11T17:07:38.786Z,5.08
2023-03-11T17:10:06.802Z,5.02
2023-03-11T17:12:33.330Z,5.01
2023-03-11T17:15:00.224Z,5.03
2023-03-11T17:17:26.714Z,5.00
2023-03-11T17:19:53.211Z,5.05
2023-03-11T17:22:19.667Z,5.09
2023-03-11T17:24:46.182Z,5.12
2023-03-11T17:27:12.763Z,5.06
2023-03-11T17:29:39.275Z,4.98
2023-03-11T17:32:06.595Z,4.89
2023-03-11T17:34:33.221Z,4.80
2023-03-11T17:36:59.704Z,4.70
2023-03-11T17:39:26.181Z,4.66
2023-03-11T17:41:52.561Z,4.60
2023-03-11T17:44:18.951Z,4.53
2023-03-11T17:46:45.567Z,4.48
2023-03-11T17:49:14.566Z,4.43
2023-03-11T17:51:41.266Z,4.38
2023-03-11T17:54:07.777Z,4.35
2023-03-11T17:56:34.542Z,4.31
2023-03-11T17:59:00.965Z,4.28
2023-03-11T18:01:29.153Z,4.25
2023-03-11T18:03:56.135Z,4.24
2023-03-11T18:06:23.738Z,4.19
2023-03-11T18:08:51.174Z,4.17
2023-03-11T18:11:21.189Z,4.15
2023-03-11T18:13:48.028Z,4.11
2023-03-11T18:16:20.082Z,4.10
2023-03-11T18:18:47.324Z,4.06
2023-03-11T18:21:18.228Z,4.06
2023-03-11T18:23:45.123Z,4.06
2023-03-11T18:26:14.102Z,4.04
2023-03-11T18:28:41.760Z,4.03
2023-03-11T18:31:16.966Z,4.01
2023-03-11T18:33:48.723Z,4.00
2023-03-11T18:36:22.156Z,3.98
2023-03-11T18:38:49.026Z,3.94
2023-03-11T18:41:15.452Z,3.93
2023-03-11T18:43:42.129Z,3.92
2023-03-11T18:46:11.801Z,3.90
2023-03-11T18:48:40.227Z,3.88
2023-03-11T18:51:08.485Z,3.87
2023-03-11T18:53:35.827Z,3.84
2023-03-11T18:56:08.007Z,3.84
2023-03-11T18:58:34.411Z,3.80
2023-03-11T19:01:09.783Z,3.80
2023-03-11T19:03:36.330Z,3.76
2023-03-11T19:06:02.853Z,3.70
2023-03-11T19:08:29.354Z,3.67
2023-03-11T19:10:56.290Z,3.63
2023-03-11T19:13:22.887Z,3.60
2023-03-11T19:15:49.322Z,3.53
2023-03-11T19:18:16.237Z,3.48
2023-03-11T19:20:42.736Z,3.45
2023-03-11T19:23:10.741Z,3.44
2023-03-11T19:25:37.974Z,3.40
2023-03-11T19:28:04.626Z,3.39
2023-03-11T19:30:31.151Z,3.40
2023-03-11T19:32:57.576Z,3.39
2023-03-11T19:35:24.014Z,3.33
2023-03-11T19:37:50.774Z,3.28
2023-03-11T19:40:18.713Z,3.22
2023-03-11T19:42:45.220Z,3.18
2023-03-11T19:45:11.881Z,3.19
2023-03-11T19:47:38.464Z,3.18
2023-03-11T19:50:06.088Z,3.14
2023-03-11T19:52:34.667Z,3.12
2023-03-11T19:55:01.114Z,3.11
2023-03-11T19:57:27.609Z,3.11
2023-03-11T19:59:55.688Z,3.08
2023-03-11T20:02:22.166Z,3.07
2023-03-11T20:04:48.681Z,3.01
2023-03-11T20:07:15.733Z,2.97
2023-03-11T20:09:42.232Z,2.96
2023-03-11T20:12:08.670Z,2.97
2023-03-11T20:14:35.068Z,2.94
2023-03-11T20:17:01.555Z,2.87
2023-03-11T20:19:28.125Z,2.82
2023-03-11T20:21:54.659Z,2.81
2023-03-11T20:24:21.106Z,2.77
2023-03-11T20:26:50.672Z,2.72
2023-03-11T20:29:17.709Z,2.70
2023-03-11T20:31:44.626Z,2.68
2023-03-11T20:34:12.141Z,2.67
2023-03-11T20:36:38.869Z,2.65
2023-03-11T20:39:09.923Z,2.62
2023-03-11T20:41:38.970Z,2.60
2023-03-11T20:44:07.528Z,2.60
2023-03-11T20:46:34.381Z,2.58
2023-03-11T20:49:01.742Z,2.52
2023-03-11T20:51:28.289Z,2.46
2023-03-11T20:53:54.937Z,2.42
2023-03-11T20:56:24.042Z,2.39
2023-03-11T20:58:51.722Z,2.39
2023-03-11T21:01:20.945Z,2.40
2023-03-11T21:03:48.565Z,2.38
2023-03-11T21:06:18.017Z,2.36
2023-03-11T21:08:44.676Z,2.34
2023-03-11T21:11:11.437Z,2.28
2023-03-11T21:13:38.110Z,2.27
2023-03-11T21:16:05.610Z,2.27
2023-03-11T21:18:32.501Z,2.25
2023-03-11T21:20:58.989Z,2.22
2023-03-11T21:23:25.560Z,2.21
2023-03-11T21:26:02.411Z,2.16
2023-03-11T21:28:29.218Z,2.14
2023-03-11T21:30:59.791Z,2.13
2023-03-11T21:33:26.617Z,2.11
2023-03-11T21:35:54.934Z,2.08
2023-03-11T21:38:23.268Z,2.07
2023-03-11T21:40:50.862Z,2.08
2023-03-11T21:43:17.688Z,2.07
2023-03-11T21:45:44.977Z,2.07
2023-03-11T21:48:13.516Z,2.06
2023-03-11T21:50:41.032Z,2.02
2023-03-11T21:53:07.746Z,1.98
2023-03-11T21:55:34.774Z,1.95
2023-03-11T21:58:01.408Z,1.91
2023-03-11T22:00:27.972Z,1.87
2023-03-11T22:02:54.567Z,1.84
2023-03-11T22:05:21.187Z,1.84
2023-03-11T22:07:47.895Z,1.81
2023-03-11T22:10:15.713Z,1.80
2023-03-11T22:12:42.143Z,1.78
2023-03-11T22:15:08.963Z,1.75
2023-03-11T22:17:35.827Z,1.71
2023-03-11T22:20:02.682Z,1.68
2023-03-11T22:22:29.104Z,1.67
2023-03-11T22:24:55.499Z,1.62
2023-03-11T22:27:23.028Z,1.61
2023-03-11T22:29:50.759Z,1.60
2023-03-11T22:32:17.285Z,1.60
2023-03-11T22:34:44.077Z,1.60
2023-03-11T22:37:10.593Z,1.58
2023-03-11T22:39:36.994Z,1.55
2023-03-11T22:42:03.518Z,1.55
2023-03-11T22:44:29.948Z,1.54
2023-03-11T22:46:56.424Z,1.54
2023-03-11T22:49:23.126Z,1.53
2023-03-11T22:51:49.698Z,1.54
2023-03-11T22:54:16.141Z,1.54
2023-03-11T22:56:42.957Z,1.52
2023-03-11T22:59:09.748Z,1.50
2023-03-11T23:01:36.212Z,1.50
2023-03-11T23:04:02.731Z,1.50
2023-03-11T23:06:29.242Z,1.49
2023-03-11T23:08:55.598Z,1.49
2023-03-11T23:11:22.168Z,1.47
2023-03-11T23:13:49.524Z,1.46
2023-03-11T23:16:23.513Z,1.42
2023-03-11T23:18:52.860Z,1.45
2023-03-11T23:21:25.504Z,1.43
2023-03-11T23:23:52.325Z,1.40
2023-03-11T23:26:20.018Z,1.39
2023-03-11T23:28:47.566Z,1.33
2023-03-11T23:31:15.504Z,1.27
2023-03-11T23:33:42.561Z,1.23
2023-03-11T23:36:12.764Z,1.19
2023-03-11T23:38:39.383Z,1.17
2023-03-11T23:41:16.619Z,1.17
2023-03-11T23:43:43.465Z,1.14
2023-03-11T23:46:10.684Z,1.14
2023-03-11T23:48:38.095Z,1.16
2023-03-11T23:51:05.422Z,1.19
2023-03-11T23:53:32.732Z,1.21
2023-03-11T23:55:59.505Z,1.18
2023-03-11T23:58:25.929Z,1.14
